Main page
METAR-TAF:

METAR-TAF

Airports :

Amsterdam Airport Schiphol

Amsterdam, Netherlands

latitude: 52-18N, longitude: 004-46E, elevation: -4 m

Current weather observation

The report was made 16 minutes ago, at 15:55 UTC
Wind 9 kt from the South
Temperature 14°C
Humidity 38%
Pressure 1022 hPa
Visibility 10 km or more
no clouds below 1500 m and no cumulonimbus

METAR: EHAM 041555Z 17009KT CAVOK 14/00 Q1022 NOSIG

Time: 18:11 (16:11 UTC)

Forecast

The report was made 5 hours and 16 minutes ago, at 10:55 UTC
Forecast valid from 04 at 12 UTC to 05 at 18 UTC
Wind 10 kt from the South
Visibility 10 km or more
no clouds below 1500 m and no cumulonimbus
Becoming
from 04 at 15 UTC to 04 at 18 UTC
Wind 6 kt from the Southeast
Becoming
from 05 at 09 UTC to 05 at 12 UTC
Wind 15 kt from the Southeast
Becoming
from 05 at 16 UTC to 05 at 18 UTC
Wind 8 kt from the South/Southeast

TAF: EHAM 041055Z 0412/0518 17010KT CAVOK BECMG 0415/0418 13006KT BECMG 0509/0512 14015KT BECMG 0516/0518 15008KT

Weather observations and forecasts of more than 4000 airports (METAR and TAF reports).

The available stations are represented by yellow and red dots on the map.

Hover mouse over dot to see the name of the station.

Then click to see weather observations and forecasts.

To change the map : click on the green buttons with a black cross to zoom in, on the green button with a dash to zoom out, or on the green arrows for adjacent maps.


METAR-TAF: